createdAt,value
2023-01-19T00:00:51.459Z,31.6530
2023-01-19T00:01:53.868Z,31.6570
2023-01-19T00:02:54.133Z,31.7260
2023-01-19T00:03:56.511Z,31.7360
2023-01-19T00:04:58.866Z,31.5980
2023-01-19T00:05:59.129Z,31.5480
2023-01-19T00:07:01.506Z,31.6610
2023-01-19T00:08:03.816Z,31.7550
2023-01-19T00:09:04.022Z,31.6760
2023-01-19T00:10:06.383Z,31.6180
2023-01-19T00:11:08.728Z,31.6510
2023-01-19T00:12:09.018Z,31.6550
2023-01-19T00:13:11.275Z,31.6050
2023-01-19T00:14:13.587Z,31.4960
2023-01-19T00:16:37.725Z,31.4100
2023-01-19T00:17:40.003Z,31.2850
2023-01-19T00:18:42.281Z,31.1400
2023-01-19T00:19:42.453Z,31.2080
2023-01-19T00:20:44.803Z,31.2750
2023-01-19T00:21:47.144Z,31.3480
2023-01-19T00:22:49.620Z,31.5380
2023-01-19T00:23:51.851Z,31.7670
2023-01-19T00:24:52.084Z,31.8790
2023-01-19T00:25:54.421Z,31.9200
2023-01-19T00:26:56.721Z,31.9230
2023-01-19T00:28:01.437Z,31.8250
2023-01-19T00:29:01.410Z,31.7870
2023-01-19T00:30:03.690Z,31.8500
2023-01-19T00:31:03.946Z,32.0280
2023-01-19T00:32:06.151Z,32.0650
2023-01-19T00:33:08.536Z,32.0630
2023-01-19T00:34:10.839Z,32.1060
2023-01-19T00:35:13.185Z,32.1850
2023-01-19T00:36:13.386Z,32.2680
2023-01-19T00:37:15.714Z,32.2900
2023-01-19T00:38:18.119Z,32.1850
2023-01-19T00:39:20.412Z,32.0990
2023-01-19T00:40:22.756Z,32.0760
2023-01-19T00:41:22.955Z,32.1340
2023-01-19T00:42:25.307Z,32.0540
2023-01-19T00:43:27.683Z,31.9210
2023-01-19T00:44:29.968Z,31.8280
2023-01-19T00:45:32.397Z,31.9030
2023-01-19T00:46:32.574Z,32.0830
2023-01-19T00:47:34.960Z,32.0780
2023-01-19T00:48:37.361Z,32.0530
2023-01-19T00:49:39.665Z,32.0320
2023-01-19T00:50:42.044Z,32.1030
2023-01-19T00:51:42.302Z,32.1990
2023-01-19T00:52:44.676Z,32.2170
2023-01-19T00:53:47.097Z,32.1750
2023-01-19T00:54:47.276Z,32.1740
2023-01-19T00:55:49.701Z,32.2590
2023-01-19T00:56:52.062Z,32.1740
2023-01-19T00:57:54.463Z,31.9590
2023-01-19T00:58:54.834Z,31.8950
2023-01-19T00:59:57.103Z,31.9030
2023-01-19T01:00:59.544Z,31.9470
2023-01-19T01:02:02.127Z,31.9540
2023-01-19T01:03:04.955Z,32.0530
2023-01-19T01:04:04.646Z,31.9890
2023-01-19T01:05:06.906Z,31.8450
2023-01-19T01:06:09.282Z,31.7740
2023-01-19T01:07:11.694Z,31.7480
2023-01-19T01:08:11.894Z,31.7140
2023-01-19T01:09:14.310Z,31.5720
2023-01-19T01:10:16.632Z,31.6070
2023-01-19T01:11:19.025Z,31.6620
2023-01-19T01:12:19.153Z,31.7850
2023-01-19T01:13:23.558Z,31.7450
2023-01-19T01:14:23.924Z,31.7910
2023-01-19T01:15:26.217Z,31.7530
2023-01-19T01:16:28.558Z,31.6350
2023-01-19T01:17:28.699Z,31.6180
2023-01-19T01:18:31.056Z,31.7890
2023-01-19T01:19:33.587Z,31.7500
2023-01-19T01:20:35.859Z,31.6300
2023-01-19T01:21:36.126Z,31.7500
2023-01-19T01:22:38.525Z,31.7610
2023-01-19T01:23:40.948Z,31.6190
2023-01-19T01:24:43.361Z,31.7030
2023-01-19T01:25:43.614Z,31.7230
2023-01-19T01:26:46.017Z,31.8060
2023-01-19T01:27:48.363Z,31.8570
2023-01-19T01:28:50.723Z,31.9110
2023-01-19T01:29:53.102Z,31.7800
2023-01-19T01:30:53.254Z,31.7330
2023-01-19T01:31:55.631Z,31.7700
2023-01-19T01:32:58.187Z,31.7840
2023-01-19T01:34:00.241Z,31.8750
2023-01-19T01:35:00.493Z,31.8030
2023-01-19T01:36:02.829Z,31.7150
2023-01-19T01:37:05.160Z,31.6140
2023-01-19T01:38:07.492Z,31.5620
2023-01-19T01:39:09.794Z,31.5890
2023-01-19T01:40:10.057Z,31.6590
2023-01-19T01:41:12.375Z,31.6980
2023-01-19T01:42:14.763Z,31.6210
2023-01-19T01:43:17.085Z,31.5110
2023-01-19T01:44:19.445Z,31.4940
2023-01-19T01:45:58.562Z,31.7450
2023-01-19T01:47:00.659Z,31.6130
2023-01-19T01:48:02.960Z,31.5200
2023-01-19T01:49:05.256Z,31.4320
2023-01-19T01:50:07.576Z,31.3550
2023-01-19T01:51:07.877Z,31.3830
2023-01-19T01:52:10.040Z,31.3670
2023-01-19T01:53:12.579Z,31.3490
2023-01-19T01:54:14.766Z,31.4070
2023-01-19T01:55:17.086Z,31.3590
2023-01-19T01:56:19.443Z,31.2850
2023-01-19T01:57:19.652Z,31.2500
2023-01-19T01:58:22.018Z,31.3060
2023-01-19T01:59:24.405Z,31.4010
2023-01-19T02:00:26.779Z,31.3650
2023-01-19T02:01:29.204Z,31.2290
2023-01-19T02:02:29.351Z,31.2370
2023-01-19T02:03:31.784Z,31.3810
2023-01-19T02:04:34.086Z,31.4210
2023-01-19T02:05:36.385Z,31.3310
2023-01-19T02:06:36.548Z,31.3000
2023-01-19T02:07:38.761Z,31.2240
2023-01-19T02:08:41.053Z,31.2260
2023-01-19T02:09:43.314Z,31.1200
2023-01-19T02:10:45.632Z,31.0810
2023-01-19T02:11:47.934Z,31.0150
2023-01-19T02:12:50.192Z,31.0290
2023-01-19T02:13:52.405Z,31.0460
2023-01-19T02:14:52.503Z,31.0060
2023-01-19T02:15:54.763Z,30.9880
2023-01-19T02:16:57.088Z,30.9240
2023-01-19T02:17:59.330Z,31.0630
2023-01-19T02:19:01.682Z,31.1820
2023-01-19T02:20:04.021Z,31.1800
2023-01-19T02:21:04.227Z,31.0990
2023-01-19T02:22:06.544Z,31.2030
2023-01-19T02:23:08.846Z,31.1510
2023-01-19T02:24:11.162Z,31.1590
2023-01-19T02:25:13.484Z,31.0890
2023-01-19T02:26:15.804Z,31.0410
2023-01-19T02:27:16.026Z,31.1800
2023-01-19T02:28:18.319Z,31.1090
2023-01-19T02:29:20.586Z,31.1670
2023-01-19T02:30:22.984Z,31.0550
2023-01-19T02:31:25.221Z,31.0920
2023-01-19T02:32:27.604Z,31.0080
2023-01-19T02:33:27.756Z,30.8800
2023-01-19T02:34:30.070Z,31.0130
2023-01-19T02:35:32.442Z,31.1350
2023-01-19T02:36:34.774Z,31.1190
2023-01-19T02:37:37.188Z,31.0680
2023-01-19T02:38:37.353Z,30.9710
2023-01-19T02:39:39.731Z,30.9040
2023-01-19T02:40:42.043Z,30.9640
2023-01-19T02:41:44.397Z,31.0660
2023-01-19T02:42:46.772Z,31.0260
2023-01-19T02:43:46.977Z,31.0550
2023-01-19T02:44:49.303Z,30.9770
2023-01-19T02:45:51.696Z,30.8620
2023-01-19T02:46:54.006Z,30.7920
2023-01-19T02:47:56.419Z,30.7240
2023-01-19T02:48:56.607Z,30.8990
2023-01-19T02:49:58.973Z,31.0720
2023-01-19T02:51:01.290Z,30.8960
2023-01-19T02:52:03.597Z,30.8890
2023-01-19T02:53:03.807Z,30.9930
2023-01-19T02:54:06.108Z,31.0360
2023-01-19T02:55:08.438Z,31.0970
2023-01-19T02:56:10.787Z,31.0790
2023-01-19T02:57:13.081Z,31.0230
2023-01-19T02:58:13.315Z,30.9530
2023-01-19T02:59:15.638Z,31.0120
2023-01-19T03:00:17.876Z,31.0210
2023-01-19T03:01:20.209Z,30.9410
2023-01-19T03:02:22.609Z,30.9400
2023-01-19T03:03:24.798Z,30.8630
2023-01-19T03:04:24.987Z,30.8420
2023-01-19T03:05:27.307Z,30.9510
2023-01-19T03:06:29.652Z,31.1270
2023-01-19T03:07:31.959Z,31.0890
2023-01-19T03:08:34.332Z,30.9930
2023-01-19T03:09:36.621Z,30.9450
2023-01-19T03:10:36.812Z,30.9790
2023-01-19T03:11:39.155Z,30.9090
2023-01-19T03:12:41.480Z,30.7550
2023-01-19T03:13:43.848Z,30.8360
2023-01-19T03:14:46.114Z,30.8600
2023-01-19T03:15:48.479Z,30.7540
2023-01-19T03:16:48.867Z,30.8150
2023-01-19T03:17:50.947Z,30.9060
2023-01-19T03:18:53.332Z,30.8570
2023-01-19T03:19:55.593Z,30.7850
2023-01-19T03:20:57.847Z,30.8480
2023-01-19T03:21:58.030Z,30.9350
2023-01-19T03:22:58.740Z,30.9230
2023-01-19T03:24:00.585Z,30.9100
2023-01-19T03:25:02.930Z,30.9490
2023-01-19T03:26:05.265Z,30.8500
2023-01-19T03:27:07.592Z,30.8500
2023-01-19T03:28:07.799Z,30.8880
2023-01-19T03:29:10.286Z,30.9000
2023-01-19T03:30:12.574Z,30.8540
2023-01-19T03:31:14.975Z,30.7840
2023-01-19T03:32:15.158Z,30.7820
2023-01-19T03:33:17.523Z,30.8730
2023-01-19T03:34:19.847Z,30.7400
2023-01-19T03:35:22.183Z,30.6400
2023-01-19T03:36:22.408Z,30.6020
2023-01-19T03:37:24.828Z,30.7970
2023-01-19T03:38:27.223Z,30.8080
2023-01-19T03:39:29.683Z,30.8700
2023-01-19T03:41:38.811Z,30.9090
2023-01-19T03:42:41.066Z,30.9300
2023-01-19T03:43:43.361Z,30.8860
2023-01-19T03:44:43.562Z,30.9330
2023-01-19T03:45:45.894Z,30.8810
2023-01-19T03:46:48.208Z,30.8030
2023-01-19T03:47:50.570Z,30.8160
2023-01-19T03:49:46.824Z,30.9820
2023-01-19T03:50:49.048Z,30.8940
2023-01-19T03:51:49.233Z,30.7420
2023-01-19T03:52:51.539Z,30.6680
2023-01-19T03:53:53.880Z,30.7240
2023-01-19T03:54:56.203Z,30.7580
2023-01-19T03:55:58.527Z,30.8130
2023-01-19T03:57:00.897Z,30.7490
2023-01-19T03:58:01.122Z,30.8230
2023-01-19T03:59:03.471Z,30.7990
2023-01-19T04:00:05.856Z,30.8120
2023-01-19T04:01:08.315Z,30.8530
2023-01-19T04:02:10.612Z,30.7470
2023-01-19T04:03:10.794Z,30.8100
2023-01-19T04:04:13.028Z,30.8940
2023-01-19T04:05:15.385Z,30.8340
2023-01-19T04:06:17.709Z,30.7580
2023-01-19T04:07:20.057Z,30.6610
2023-01-19T04:08:20.260Z,30.5780
2023-01-19T04:09:22.551Z,30.5720
2023-01-19T04:10:24.859Z,30.4570
2023-01-19T04:11:27.077Z,30.5090
2023-01-19T04:12:29.343Z,30.4270
2023-01-19T04:13:31.581Z,30.3250
2023-01-19T04:14:33.845Z,30.5140
2023-01-19T04:15:36.204Z,30.6650
2023-01-19T04:16:36.317Z,30.6770
2023-01-19T04:17:38.507Z,30.7420
2023-01-19T04:18:40.796Z,30.7240
2023-01-19T04:19:43.078Z,30.6030
2023-01-19T04:20:44.253Z,30.5190
2023-01-19T04:21:46.505Z,30.6620
2023-01-19T04:22:48.781Z,30.7110
2023-01-19T04:23:51.068Z,30.6990
2023-01-19T04:24:53.362Z,30.7850
2023-01-19T04:25:53.500Z,30.9710
2023-01-19T04:26:55.763Z,30.9310
2023-01-19T04:27:57.984Z,30.9400
2023-01-19T04:29:00.295Z,30.8800
2023-01-19T04:30:00.443Z,30.9020
2023-01-19T04:31:02.837Z,30.8150
2023-01-19T04:32:05.056Z,30.6560
2023-01-19T04:33:07.336Z,30.7450
2023-01-19T04:34:07.457Z,30.8070
2023-01-19T04:35:09.848Z,30.9820
2023-01-19T04:36:12.301Z,30.9470
2023-01-19T04:37:12.405Z,30.8320
2023-01-19T04:38:14.758Z,30.9110
2023-01-19T04:39:17.122Z,31.0060
2023-01-19T04:40:17.334Z,31.0060
2023-01-19T04:41:19.777Z,31.0890
2023-01-19T04:42:22.091Z,31.0000
2023-01-19T04:43:22.319Z,30.9370
2023-01-19T04:44:24.557Z,31.0830
2023-01-19T04:45:26.869Z,31.0260
2023-01-19T04:46:29.198Z,30.9930
2023-01-19T04:47:29.462Z,31.0380
2023-01-19T04:48:31.588Z,31.1710
2023-01-19T04:49:33.943Z,31.2390
2023-01-19T04:50:36.233Z,31.3540
2023-01-19T04:51:38.609Z,31.2520
2023-01-19T04:52:40.892Z,31.0370
2023-01-19T04:53:41.164Z,31.2060
2023-01-19T04:54:43.528Z,31.3130
2023-01-19T04:55:45.936Z,31.4000
2023-01-19T04:56:46.168Z,31.4120
2023-01-19T04:57:48.547Z,31.4580
2023-01-19T04:58:50.964Z,31.4940
2023-01-19T04:59:51.178Z,31.3750
2023-01-19T05:00:53.657Z,31.3640
2023-01-19T05:01:56.157Z,31.4060
2023-01-19T05:02:56.266Z,31.2720
2023-01-19T05:03:58.555Z,31.2320
2023-01-19T05:05:00.939Z,31.2410
2023-01-19T05:06:03.271Z,31.2140
2023-01-19T05:07:05.715Z,31.2120
2023-01-19T05:08:07.879Z,31.2500
2023-01-19T05:09:07.999Z,31.3340
2023-01-19T05:10:10.300Z,31.2870
2023-01-19T05:11:12.617Z,31.1870
2023-01-19T05:12:14.949Z,31.3450
2023-01-19T05:13:17.271Z,31.4890
2023-01-19T05:14:19.610Z,31.3760
2023-01-19T05:15:19.790Z,31.3710
2023-01-19T05:16:22.160Z,31.2720
2023-01-19T05:17:24.446Z,31.3630
2023-01-19T05:18:26.770Z,31.2650
2023-01-19T05:19:26.923Z,31.2880
2023-01-19T05:20:29.276Z,31.3580
2023-01-19T05:21:31.589Z,31.4980
2023-01-19T05:22:31.824Z,31.4270
2023-01-19T05:23:34.215Z,31.4280
2023-01-19T05:24:36.516Z,31.3580
2023-01-19T05:25:36.712Z,31.3860
2023-01-19T05:26:39.065Z,31.3640
2023-01-19T05:27:41.448Z,31.4620
2023-01-19T05:28:43.755Z,31.6260
2023-01-19T05:29:46.055Z,31.6770
2023-01-19T05:30:48.427Z,31.6780
2023-01-19T05:31:48.686Z,31.7440
2023-01-19T05:32:50.951Z,31.8560
2023-01-19T05:33:53.271Z,31.8710
2023-01-19T05:34:55.580Z,31.8510
2023-01-19T05:35:57.916Z,31.8960
2023-01-19T05:37:00.266Z,31.9130
2023-01-19T05:38:02.650Z,31.9800
2023-01-19T05:39:04.973Z,31.9260
2023-01-19T05:40:07.340Z,31.8150
2023-01-19T05:41:07.562Z,31.8400
2023-01-19T05:42:09.942Z,31.8760
2023-01-19T05:43:12.347Z,31.9920
2023-01-19T05:44:12.591Z,32.0720
2023-01-19T05:45:14.967Z,32.0980
2023-01-19T05:46:17.448Z,32.1920
2023-01-19T05:48:33.993Z,31.7940
2023-01-19T05:50:35.417Z,31.5470
2023-01-19T05:51:37.755Z,31.5380
2023-01-19T05:52:40.083Z,31.4790
2023-01-19T05:53:42.467Z,31.4420
2023-01-19T05:54:42.657Z,31.3430
2023-01-19T05:55:45.032Z,31.3730
2023-01-19T05:56:47.393Z,31.4410
2023-01-19T05:57:49.713Z,31.4370
2023-01-19T05:58:52.125Z,31.2320
2023-01-19T05:59:52.294Z,31.4670
2023-01-19T06:00:54.671Z,31.7130
2023-01-19T06:01:56.972Z,31.7640
2023-01-19T06:02:59.772Z,31.6990
2023-01-19T06:04:01.688Z,31.7290
2023-01-19T06:05:01.833Z,31.6200
2023-01-19T06:06:04.195Z,31.5530
2023-01-19T06:07:06.535Z,31.6550
2023-01-19T06:08:08.856Z,31.7980
2023-01-19T06:09:11.240Z,31.7560
2023-01-19T06:10:11.398Z,31.6520
2023-01-19T06:11:13.734Z,31.5910
2023-01-19T06:12:16.073Z,31.5620
2023-01-19T06:13:18.353Z,31.5620
2023-01-19T06:14:20.673Z,31.6090
2023-01-19T06:15:23.029Z,31.5870
2023-01-19T06:16:23.179Z,31.5520
2023-01-19T06:17:25.488Z,31.5000
2023-01-19T06:18:27.844Z,31.4830
2023-01-19T06:19:30.189Z,31.6720
2023-01-19T06:20:32.493Z,31.6240
2023-01-19T06:21:34.855Z,31.5360
2023-01-19T06:22:35.007Z,27.9550
2023-01-19T06:23:37.375Z,27.5000
2023-01-19T06:24:39.828Z,27.8820
2023-01-19T06:25:40.105Z,28.3970
2023-01-19T06:26:40.425Z,28.1800
2023-01-19T06:27:42.930Z,27.8240
2023-01-19T06:28:45.435Z,28.1030
2023-01-19T06:29:47.933Z,28.7910
2023-01-19T06:30:50.390Z,30.1520
2023-01-19T06:32:46.822Z,30.7340
2023-01-19T06:33:49.186Z,30.7520
2023-01-19T06:34:49.492Z,30.5590
2023-01-19T06:35:50.701Z,30.4850
2023-01-19T06:36:52.126Z,30.4280
2023-01-19T06:37:52.336Z,30.3720
2023-01-19T06:38:54.722Z,30.3490
2023-01-19T06:39:57.087Z,30.2760
2023-01-19T06:40:59.455Z,30.2110
2023-01-19T06:42:01.758Z,30.1300
2023-01-19T06:43:02.357Z,30.0840
2023-01-19T06:44:04.309Z,30.0550
2023-01-19T06:45:06.707Z,30.0340
2023-01-19T06:46:09.130Z,30.0240
2023-01-19T06:47:15.567Z,29.9830
2023-01-19T06:48:11.631Z,29.9890
2023-01-19T06:49:14.009Z,29.9820
2023-01-19T06:50:16.382Z,29.8050
2023-01-19T06:51:18.687Z,29.9340
2023-01-19T06:52:18.934Z,30.0270
2023-01-19T06:53:21.324Z,30.0710
2023-01-19T06:54:23.692Z,30.0340
2023-01-19T06:55:27.890Z,30.0330
2023-01-19T06:56:28.496Z,29.9850
2023-01-19T06:57:28.791Z,30.0030
2023-01-19T06:58:31.136Z,30.0240
2023-01-19T06:59:33.476Z,30.0130
2023-01-19T07:00:35.816Z,29.9980
2023-01-19T07:01:36.099Z,30.0010
2023-01-19T07:02:38.524Z,29.9920
2023-01-19T07:03:40.759Z,30.0480
2023-01-19T07:04:43.103Z,30.0970
2023-01-19T07:05:45.445Z,30.0530
2023-01-19T07:06:45.576Z,30.0770
2023-01-19T07:07:47.969Z,30.0830
2023-01-19T07:08:50.299Z,30.0650
2023-01-19T07:09:54.115Z,30.0510
2023-01-19T07:11:26.650Z,30.0630
2023-01-19T07:11:55.262Z,30.0650
2023-01-19T07:12:57.612Z,30.0040
2023-01-19T07:13:59.996Z,30.0170
2023-01-19T07:15:00.188Z,29.9140
2023-01-19T07:16:02.556Z,29.8570
2023-01-19T07:17:04.843Z,29.8270
2023-01-19T07:18:07.169Z,29.9270
2023-01-19T07:19:07.372Z,29.9510
2023-01-19T07:20:09.735Z,29.9470
2023-01-19T07:21:12.144Z,29.9920
2023-01-19T07:22:14.485Z,29.9550
2023-01-19T07:23:14.731Z,30.0470
2023-01-19T07:24:17.091Z,30.1120
2023-01-19T07:25:19.443Z,30.0240
2023-01-19T07:26:22.152Z,30.0790
2023-01-19T07:27:24.144Z,30.2090
2023-01-19T07:28:24.357Z,30.1640
2023-01-19T07:29:26.696Z,30.1230
2023-01-19T07:30:29.178Z,30.2070
2023-01-19T07:31:31.593Z,30.1740
2023-01-19T07:32:33.709Z,30.2200
2023-01-19T07:33:33.892Z,30.1360
2023-01-19T07:34:36.250Z,30.0490
2023-01-19T07:35:38.622Z,29.9000
2023-01-19T07:36:40.969Z,29.7670
2023-01-19T07:37:43.275Z,29.6770
2023-01-19T07:38:43.600Z,29.5950
2023-01-19T07:39:45.784Z,29.5620
2023-01-19T07:40:48.101Z,29.6730
2023-01-19T07:41:50.384Z,29.6400
2023-01-19T07:42:52.607Z,29.6620
2023-01-19T07:43:54.828Z,29.6230
2023-01-19T07:44:57.057Z,29.5290
2023-01-19T07:45:59.323Z,29.5530
2023-01-19T07:47:01.609Z,29.5630
2023-01-19T07:48:01.685Z,29.6030
2023-01-19T07:49:03.975Z,29.5160
2023-01-19T07:50:06.227Z,29.5250
2023-01-19T07:51:10.424Z,29.5230
2023-01-19T07:52:10.748Z,29.5450
2023-01-19T07:53:13.012Z,29.5630
2023-01-19T07:54:13.229Z,29.5530
2023-01-19T07:55:15.555Z,29.5740
2023-01-19T07:56:17.925Z,29.6010
2023-01-19T07:57:20.334Z,29.6460
2023-01-19T07:58:20.534Z,29.6260
2023-01-19T07:59:22.901Z,29.6320
2023-01-19T08:00:25.282Z,29.6100
2023-01-19T08:01:27.801Z,29.6170
2023-01-19T08:02:30.029Z,29.5070
2023-01-19T08:03:30.211Z,29.5390
2023-01-19T08:04:32.691Z,29.5700
2023-01-19T08:05:34.983Z,29.6160
2023-01-19T08:06:37.353Z,29.6680
2023-01-19T08:07:39.786Z,29.6950
2023-01-19T08:08:39.972Z,29.7090
2023-01-19T08:09:42.354Z,29.7570
2023-01-19T08:10:44.687Z,29.7850
2023-01-19T08:11:47.083Z,29.7740
2023-01-19T08:12:47.322Z,29.7590
2023-01-19T08:13:49.705Z,29.7430
2023-01-19T08:14:52.041Z,29.7250
2023-01-19T08:15:54.505Z,29.6530
2023-01-19T08:16:56.687Z,29.6420
2023-01-19T08:17:56.891Z,29.6620
2023-01-19T08:18:59.200Z,29.6840
2023-01-19T08:20:01.569Z,29.6920
2023-01-19T08:21:03.833Z,29.6790
2023-01-19T08:22:06.116Z,29.6360
2023-01-19T08:23:08.442Z,29.6640
2023-01-19T08:24:08.594Z,29.6950
2023-01-19T08:25:10.852Z,29.7070
2023-01-19T08:26:13.147Z,29.5560
2023-01-19T08:27:15.480Z,27.0110
2023-01-19T08:28:17.988Z,25.4480
2023-01-19T08:29:20.231Z,24.6580
2023-01-19T08:30:22.614Z,24.6660
2023-01-19T08:31:25.245Z,26.3020
2023-01-19T08:32:27.473Z,28.1850
2023-01-19T08:33:27.631Z,28.6040
2023-01-19T08:34:29.991Z,28.7680
2023-01-19T08:35:32.401Z,29.0100
2023-01-19T08:36:34.743Z,28.8720
2023-01-19T08:37:37.078Z,28.7620
2023-01-19T08:38:37.362Z,28.8070
2023-01-19T08:39:39.710Z,28.7430
2023-01-19T08:40:42.153Z,28.7210
2023-01-19T08:41:44.426Z,28.6770
2023-01-19T08:42:44.658Z,28.7180
2023-01-19T08:43:47.106Z,28.7170
2023-01-19T08:44:57.686Z,28.7180
2023-01-19T08:45:51.928Z,28.7320
2023-01-19T08:46:52.155Z,28.7210
2023-01-19T08:47:54.501Z,28.7010
2023-01-19T08:48:56.876Z,28.6810
2023-01-19T08:49:59.233Z,28.6650
2023-01-19T08:51:01.607Z,28.7010
2023-01-19T08:52:01.883Z,28.6810
2023-01-19T08:53:04.278Z,28.6780
2023-01-19T08:54:06.751Z,28.6730
2023-01-19T08:55:09.113Z,28.6960
2023-01-19T08:56:09.411Z,28.7130
2023-01-19T08:57:11.785Z,28.6880
2023-01-19T08:58:14.192Z,28.7070
2023-01-19T08:59:14.587Z,28.7080
2023-01-19T09:00:16.870Z,28.6940
2023-01-19T09:01:19.392Z,28.6910
2023-01-19T09:02:21.858Z,28.7080
2023-01-19T09:03:21.988Z,28.6980
2023-01-19T09:04:24.301Z,28.7180
2023-01-19T09:05:26.560Z,28.7020
2023-01-19T09:06:28.867Z,28.6870
2023-01-19T09:07:32.586Z,28.7250
2023-01-19T09:08:31.293Z,28.7190
2023-01-19T09:09:33.621Z,28.7170
2023-01-19T09:10:36.068Z,28.7250
2023-01-19T09:11:38.289Z,28.7370
2023-01-19T09:12:40.565Z,28.7120
2023-01-19T09:13:42.912Z,28.7280
2023-01-19T09:14:43.193Z,28.7280
2023-01-19T09:15:45.602Z,28.7550
2023-01-19T09:16:47.988Z,28.7600
2023-01-19T09:17:50.383Z,28.7380
2023-01-19T09:18:50.646Z,28.7200
2023-01-19T09:19:53.071Z,28.7450
2023-01-19T09:20:55.410Z,28.7500
2023-01-19T09:21:57.770Z,28.7280
2023-01-19T09:22:58.024Z,28.7170
2023-01-19T09:24:00.428Z,28.7550
2023-01-19T09:25:02.889Z,28.7300
2023-01-19T09:26:05.252Z,28.6320
2023-01-19T09:27:05.522Z,27.6740
2023-01-19T09:28:07.815Z,28.4370
2023-01-19T09:29:10.198Z,28.6420
2023-01-19T09:30:12.675Z,28.6870
2023-01-19T09:31:15.091Z,28.7230
2023-01-19T09:32:15.091Z,28.8110
2023-01-19T09:32:59.410Z,28.9230
2023-01-19T09:33:58.360Z,28.9330
2023-01-19T09:35:00.654Z,28.8880
2023-01-19T09:36:02.955Z,28.8880
2023-01-19T09:37:05.278Z,28.8940
2023-01-19T09:38:07.665Z,28.8930
2023-01-19T09:39:07.839Z,28.8460
2023-01-19T09:40:10.186Z,28.8320
2023-01-19T09:41:12.567Z,28.7960
2023-01-19T09:42:14.893Z,28.8300
2023-01-19T09:43:17.244Z,28.8040
2023-01-19T09:44:17.425Z,28.7860
2023-01-19T09:45:19.817Z,28.7660
2023-01-19T09:46:22.206Z,28.7330
2023-01-19T09:47:24.513Z,28.7380
2023-01-19T09:48:26.857Z,28.7640
2023-01-19T09:49:27.077Z,28.7810
2023-01-19T09:50:29.416Z,28.7940
2023-01-19T09:51:31.831Z,28.7340
2023-01-19T09:52:34.166Z,28.7680
2023-01-19T09:53:34.401Z,28.7530
2023-01-19T09:54:36.776Z,28.7230
2023-01-19T09:55:39.130Z,28.7080
2023-01-19T09:56:41.530Z,28.7560
2023-01-19T09:57:43.937Z,28.7420
2023-01-19T09:58:44.043Z,28.7300
2023-01-19T09:59:46.346Z,28.7450
2023-01-19T10:00:48.818Z,28.7750
2023-01-19T10:01:51.066Z,28.8120
2023-01-19T10:02:53.373Z,28.7590
2023-01-19T10:03:55.592Z,28.7450
2023-01-19T10:04:55.736Z,28.7900
2023-01-19T10:05:58.046Z,28.7550
2023-01-19T10:07:00.402Z,28.7030
2023-01-19T10:08:03.068Z,28.7070
2023-01-19T10:09:04.971Z,28.7550
2023-01-19T10:10:05.115Z,28.7250
2023-01-19T10:11:07.352Z,28.7480
2023-01-19T10:12:09.664Z,28.7380
2023-01-19T10:13:11.978Z,28.7230
2023-01-19T10:14:14.246Z,28.7290
2023-01-19T10:15:16.518Z,28.7390
2023-01-19T10:16:18.848Z,28.7400
2023-01-19T10:17:21.153Z,28.6740
2023-01-19T10:18:21.278Z,28.7080
2023-01-19T10:19:23.579Z,28.6680
2023-01-19T10:20:25.903Z,28.6030
2023-01-19T10:21:28.237Z,28.6520
2023-01-19T10:22:30.607Z,28.5930
2023-01-19T10:23:30.729Z,28.5880
2023-01-19T10:24:33.011Z,28.5360
2023-01-19T10:25:35.376Z,28.4910
2023-01-19T10:26:37.617Z,27.0160
2023-01-19T10:27:39.988Z,25.9200
2023-01-19T10:28:42.294Z,26.4230
2023-01-19T10:29:44.590Z,27.4270
2023-01-19T10:30:44.829Z,28.0770
2023-01-19T10:31:47.120Z,28.2220
2023-01-19T10:32:49.495Z,28.0650
2023-01-19T10:33:51.649Z,28.0160
2023-01-19T10:34:51.897Z,27.8380
2023-01-19T10:35:54.215Z,27.8320
2023-01-19T10:36:54.332Z,27.8640
2023-01-19T10:37:56.668Z,27.9110
2023-01-19T10:38:58.946Z,27.9900
2023-01-19T10:40:01.287Z,27.9970
2023-01-19T10:41:03.593Z,28.0400
2023-01-19T10:42:05.792Z,28.0860
2023-01-19T10:43:06.044Z,28.1470
2023-01-19T10:44:08.349Z,28.2230
2023-01-19T10:45:10.582Z,28.3330
2023-01-19T10:46:13.012Z,28.4270
2023-01-19T10:47:15.234Z,28.4340
2023-01-19T10:48:15.600Z,28.4470
2023-01-19T10:49:17.724Z,28.5040
2023-01-19T10:50:20.024Z,28.5460
2023-01-19T10:51:22.347Z,28.5850
2023-01-19T10:52:24.578Z,28.6170
2023-01-19T10:53:27.051Z,28.6300
2023-01-19T10:54:29.194Z,28.6130
2023-01-19T10:55:29.354Z,28.6320
2023-01-19T10:56:31.672Z,28.6280
2023-01-19T10:57:34.010Z,28.6560
2023-01-19T10:58:36.353Z,28.7040
2023-01-19T10:59:38.691Z,28.6600
2023-01-19T11:00:29.830Z,28.7690
2023-01-19T11:01:30.605Z,28.7970
2023-01-19T11:02:32.972Z,28.7710
2023-01-19T11:03:35.028Z,28.8100
2023-01-19T11:04:37.396Z,28.8160
2023-01-19T11:05:39.550Z,28.8010
2023-01-19T11:06:39.682Z,28.8220
2023-01-19T11:07:41.982Z,28.8410
2023-01-19T11:08:44.224Z,28.8320
2023-01-19T11:09:46.532Z,28.8710
2023-01-19T11:10:49.325Z,26.7400
2023-01-19T11:11:50.967Z,25.9860
2023-01-19T11:12:53.201Z,26.3670
2023-01-19T11:13:55.440Z,27.0590
2023-01-19T11:14:57.809Z,28.0860
2023-01-19T11:15:57.915Z,28.3380
2023-01-19T11:17:00.229Z,28.3300
2023-01-19T11:18:02.495Z,28.1970
2023-01-19T11:19:04.802Z,28.1800
2023-01-19T11:20:07.244Z,28.1640
2023-01-19T11:21:09.446Z,28.1950
2023-01-19T11:22:09.640Z,28.2250
2023-01-19T11:23:11.958Z,28.2150
2023-01-19T11:24:14.245Z,28.2210
2023-01-19T11:25:16.583Z,28.2320
2023-01-19T11:26:16.756Z,28.2520
2023-01-19T11:27:19.095Z,28.2360
2023-01-19T11:28:19.270Z,28.2230
2023-01-19T11:29:21.548Z,28.2340
2023-01-19T11:30:23.903Z,28.2520
2023-01-19T11:31:26.227Z,28.2190
2023-01-19T11:32:28.505Z,28.2040
2023-01-19T11:33:30.886Z,28.2120
2023-01-19T11:34:31.122Z,28.1980
2023-01-19T11:35:33.606Z,28.2090
2023-01-19T11:36:35.848Z,28.1750
2023-01-19T11:37:38.144Z,28.1910
2023-01-19T11:38:38.362Z,28.1640
2023-01-19T11:39:40.746Z,28.1710
2023-01-19T11:40:43.158Z,28.1250
2023-01-19T11:41:45.532Z,28.1410
2023-01-19T11:42:45.771Z,28.1800
2023-01-19T11:43:49.503Z,28.1800
2023-01-19T11:44:50.546Z,28.1810
2023-01-19T11:45:53.082Z,28.1850
2023-01-19T11:46:53.144Z,28.1590
2023-01-19T11:47:55.509Z,28.1490
2023-01-19T11:48:57.869Z,28.1610
2023-01-19T11:50:00.202Z,28.1700
2023-01-19T11:51:02.545Z,28.1430
2023-01-19T11:52:04.885Z,28.0990
2023-01-19T11:53:05.105Z,28.1030
2023-01-19T11:54:07.481Z,28.0950
2023-01-19T11:55:09.867Z,28.1240
2023-01-19T11:56:12.288Z,28.1010
2023-01-19T11:57:12.467Z,28.1190
2023-01-19T11:58:14.815Z,28.0650
2023-01-19T11:59:17.192Z,28.0710
2023-01-19T12:00:19.577Z,28.0710
2023-01-19T12:01:19.926Z,28.0710
2023-01-19T12:02:22.265Z,28.0800
2023-01-19T12:03:22.445Z,28.0650
2023-01-19T12:04:24.787Z,28.0350
2023-01-19T12:05:27.122Z,28.0050
2023-01-19T12:06:29.508Z,27.9940
2023-01-19T12:07:31.821Z,27.9760
2023-01-19T12:08:32.021Z,28.0140
2023-01-19T12:09:34.391Z,27.9270
2023-01-19T12:10:36.782Z,27.8540
2023-01-19T12:11:39.214Z,27.9210
2023-01-19T12:12:43.171Z,27.9520
2023-01-19T12:13:46.025Z,27.9670
2023-01-19T12:14:48.305Z,27.8170
2023-01-19T12:15:48.437Z,27.9640
2023-01-19T12:16:50.860Z,28.0650
2023-01-19T12:17:53.049Z,28.0390
2023-01-19T12:18:55.365Z,27.9920
2023-01-19T12:19:57.689Z,28.0420
2023-01-19T12:21:01.898Z,27.9730
2023-01-19T12:22:00.181Z,27.9920
2023-01-19T12:23:02.483Z,28.0540
2023-01-19T12:24:04.880Z,28.0700
2023-01-19T12:25:07.154Z,28.0870
2023-01-19T12:26:09.459Z,27.9950
2023-01-19T12:27:11.894Z,27.9970
2023-01-19T12:28:11.922Z,27.8670
2023-01-19T12:29:14.243Z,27.8960
2023-01-19T12:30:16.547Z,27.9850
2023-01-19T12:31:19.006Z,28.0830
2023-01-19T12:32:21.165Z,27.9740
2023-01-19T12:33:23.448Z,28.0740
2023-01-19T12:34:23.638Z,28.0080
2023-01-19T12:35:25.907Z,28.1470